Aviation Digital Data Service (ADDS)

Output produced by METARs form (1526 UTC 22 April 2021)
found at http://www.aviationweather.gov/metar/data/
 
KRWF 221453Z AUTO 25011G19KT 10SM CLR 11/M04 A3001 RMK AO2 SLP170 T01111039 50004
KRWF 221120Z 2212/2312 25012KT P6SM SCT100 
     FM221800 22014G20KT P6SM SKC 
     FM230600 19010KT P6SM -SHRA SCT020 BKN030 
     FM230900 16010KT 6SM -SHRA BR SCT006 OVC012
       
KMSP 221453Z 27009KT 10SM CLR 10/M04 A2999 RMK AO2 SLP160 T01001039 50002
KMSP 221359Z 2214/2318 25007G12KT P6SM SKC 
     FM221600 24008G18KT P6SM SKC 
     FM230300 21008KT P6SM BKN180 
     FM230900 20006KT P6SM -SHRA SCT035 OVC060 
     FM231100 18006KT P6SM -SHRA BKN025 
     FM231300 16007KT P6SM BKN015